sensor_id;sensor_type;location;lat;lon;timestamp;pressure;altitude;pressure_sealevel;temperature;humidity
49194;BME280;35029;50.804;12.866;2023-04-30T00:01:39;98044.28;;;9.85;100.00
49194;BME280;35029;50.804;12.866;2023-04-30T00:04:05;98047.56;;;9.87;100.00
49194;BME280;35029;50.804;12.866;2023-04-30T00:06:30;98056.97;;;9.89;100.00
49194;BME280;35029;50.804;12.866;2023-04-30T00:08:56;98054.88;;;9.85;100.00
49194;BME280;35029;50.804;12.866;2023-04-30T00:11:22;98046.28;;;9.82;100.00
49194;BME280;35029;50.804;12.866;2023-04-30T00:13:50;98057.97;;;9.88;100.00
49194;BME280;35029;50.804;12.866;2023-04-30T00:16:16;98050.78;;;9.82;100.00
49194;BME280;35029;50.804;12.866;2023-04-30T00:18:42;98057.16;;;9.73;100.00
49194;BME280;35029;50.804;12.866;2023-04-30T00:21:08;98062.47;;;9.73;100.00
49194;BME280;35029;50.804;12.866;2023-04-30T00:23:33;98068.66;;;9.80;100.00
49194;BME280;35029;50.804;12.866;2023-04-30T00:25:59;98068.66;;;9.80;100.00
49194;BME280;35029;50.804;12.866;2023-04-30T00:28:24;98045.38;;;9.60;100.00
49194;BME280;35029;50.804;12.866;2023-04-30T00:30:50;98071.38;;;9.72;100.00
49194;BME280;35029;50.804;12.866;2023-04-30T00:33:15;98071.56;;;9.70;100.00
49194;BME280;35029;50.804;12.866;2023-04-30T00:35:41;98071.56;;;9.70;100.00
49194;BME280;35029;50.804;12.866;2023-04-30T00:38:07;98079.53;;;9.70;100.00
49194;BME280;35029;50.804;12.866;2023-04-30T00:40:34;98075.78;;;9.64;100.00
49194;BME280;35029;50.804;12.866;2023-04-30T00:43:00;98070.75;;;9.55;100.00
49194;BME280;35029;50.804;12.866;2023-04-30T00:45:25;98080.78;;;9.59;100.00
49194;BME280;35029;50.804;12.866;2023-04-30T00:47:51;98082.81;;;9.57;100.00
49194;BME280;35029;50.804;12.866;2023-04-30T00:50:17;98085.44;;;9.42;100.00
49194;BME280;35029;50.804;12.866;2023-04-30T00:52:43;98074.56;;;9.37;100.00
49194;BME280;35029;50.804;12.866;2023-04-30T00:55:10;98077.19;;;9.37;100.00
49194;BME280;35029;50.804;12.866;2023-04-30T00:57:37;98081.19;;;9.33;100.00
49194;BME280;35029;50.804;12.866;2023-04-30T01:00:04;98086.25;;;9.20;100.00
49194;BME280;35029;50.804;12.866;2023-04-30T01:02:30;98090.09;;;9.17;100.00
49194;BME280;35029;50.804;12.866;2023-04-30T01:04:56;98092.34;;;9.05;100.00
49194;BME280;35029;50.804;12.866;2023-04-30T01:07:25;98095.88;;;8.98;100.00
49194;BME280;35029;50.804;12.866;2023-04-30T01:09:53;98093.91;;;8.91;100.00
49194;BME280;35029;50.804;12.866;2023-04-30T01:15:37;98089.78;;;8.66;100.00
49194;BME280;35029;50.804;12.866;2023-04-30T01:18:17;98109.97;;;8.58;100.00
49194;BME280;35029;50.804;12.866;2023-04-30T01:20:53;98083.97;;;8.39;100.00
49194;BME280;35029;50.804;12.866;2023-04-30T01:26:19;98117.31;;;8.48;100.00
49194;BME280;35029;50.804;12.866;2023-04-30T01:28:52;98103.63;;;8.36;100.00
49194;BME280;35029;50.804;12.866;2023-04-30T01:31:19;98119.13;;;8.39;100.00
49194;BME280;35029;50.804;12.866;2023-04-30T01:33:45;98125.75;;;8.35;100.00
49194;BME280;35029;50.804;12.866;2023-04-30T01:36:23;98133.34;;;8.30;100.00
49194;BME280;35029;50.804;12.866;2023-04-30T01:39:14;98125.59;;;8.28;100.00
49194;BME280;35029;50.804;12.866;2023-04-30T01:47:47;98127.69;;;8.02;100.00
49194;BME280;35029;50.804;12.866;2023-04-30T01:50:31;98143.19;;;8.05;100.00
49194;BME280;35029;50.804;12.866;2023-04-30T01:53:01;98145.34;;;8.01;100.00
49194;BME280;35029;50.804;12.866;2023-04-30T01:58:04;98148.81;;;7.85;100.00
49194;BME280;35029;50.804;12.866;2023-04-30T02:00:32;98158.91;;;7.90;100.00
49194;BME280;35029;50.804;12.866;2023-04-30T02:02:58;98147.38;;;7.66;100.00
49194;BME280;35029;50.804;12.866;2023-04-30T02:05:24;98154.47;;;7.49;100.00
49194;BME280;35029;50.804;12.866;2023-04-30T02:07:50;98166.19;;;7.55;100.00
49194;BME280;35029;50.804;12.866;2023-04-30T02:10:21;98173.91;;;7.65;100.00
49194;BME280;35029;50.804;12.866;2023-04-30T02:12:47;98181.19;;;7.54;100.00
49194;BME280;35029;50.804;12.866;2023-04-30T02:15:12;98181.38;;;7.53;100.00
49194;BME280;35029;50.804;12.866;2023-04-30T02:17:40;98189.75;;;7.56;100.00
49194;BME280;35029;50.804;12.866;2023-04-30T02:20:06;98174.59;;;7.50;100.00
49194;BME280;35029;50.804;12.866;2023-04-30T02:22:32;98180.03;;;7.49;100.00
49194;BME280;35029;50.804;12.866;2023-04-30T02:24:58;98199.66;;;7.46;100.00
49194;BME280;35029;50.804;12.866;2023-04-30T02:27:24;98201.63;;;7.44;100.00
49194;BME280;35029;50.804;12.866;2023-04-30T02:29:51;98201.13;;;7.32;100.00
49194;BME280;35029;50.804;12.866;2023-04-30T02:32:17;98196.00;;;7.22;100.00
49194;BME280;35029;50.804;12.866;2023-04-30T02:34:43;98190.69;;;7.06;100.00
49194;BME280;35029;50.804;12.866;2023-04-30T02:37:09;98190.34;;;7.01;100.00
49194;BME280;35029;50.804;12.866;2023-04-30T02:39:35;98200.56;;;6.96;100.00
49194;BME280;35029;50.804;12.866;2023-04-30T02:42:00;98208.78;;;6.92;100.00
49194;BME280;35029;50.804;12.866;2023-04-30T02:44:28;98211.25;;;6.86;100.00
49194;BME280;35029;50.804;12.866;2023-04-30T02:46:53;98210.34;;;6.69;100.00
49194;BME280;35029;50.804;12.866;2023-04-30T02:49:19;98224.81;;;6.65;100.00
49194;BME280;35029;50.804;12.866;2023-04-30T02:51:45;98230.44;;;6.62;100.00
49194;BME280;35029;50.804;12.866;2023-04-30T02:54:10;98213.22;;;6.41;100.00
49194;BME280;35029;50.804;12.866;2023-04-30T02:56:36;98216.47;;;6.35;100.00
49194;BME280;35029;50.804;12.866;2023-04-30T02:59:04;98230.97;;;6.39;100.00
49194;BME280;35029;50.804;12.866;2023-04-30T03:01:30;98235.06;;;6.33;100.00
49194;BME280;35029;50.804;12.866;2023-04-30T03:03:56;98208.00;;;6.23;100.00
49194;BME280;35029;50.804;12.866;2023-04-30T03:06:22;98229.09;;;6.31;100.00
49194;BME280;35029;50.804;12.866;2023-04-30T03:08:48;98229.75;;;6.25;100.00
49194;BME280;35029;50.804;12.866;2023-04-30T03:11:14;98237.31;;;6.28;100.00
49194;BME280;35029;50.804;12.866;2023-04-30T03:13:40;98226.25;;;6.16;100.00
49194;BME280;35029;50.804;12.866;2023-04-30T03:16:05;98247.47;;;6.23;100.00
49194;BME280;35029;50.804;12.866;2023-04-30T03:18:31;98240.22;;;6.17;100.00
49194;BME280;35029;50.804;12.866;2023-04-30T03:20:57;98243.22;;;6.22;100.00
49194;BME280;35029;50.804;12.866;2023-04-30T03:23:25;98248.28;;;6.15;100.00
49194;BME280;35029;50.804;12.866;2023-04-30T03:25:51;98234.69;;;6.02;100.00
49194;BME280;35029;50.804;12.866;2023-04-30T03:28:16;98242.31;;;6.13;100.00
49194;BME280;35029;50.804;12.866;2023-04-30T03:30:42;98225.75;;;5.95;100.00
49194;BME280;35029;50.804;12.866;2023-04-30T03:33:07;98251.13;;;6.04;100.00
49194;BME280;35029;50.804;12.866;2023-04-30T03:35:33;98239.50;;;5.88;100.00
49194;BME280;35029;50.804;12.866;2023-04-30T03:37:59;98265.97;;;6.05;100.00
49194;BME280;35029;50.804;12.866;2023-04-30T03:40:25;98259.41;;;5.91;100.00
49194;BME280;35029;50.804;12.866;2023-04-30T03:42:51;98247.69;;;5.85;100.00
49194;BME280;35029;50.804;12.866;2023-04-30T03:45:17;98263.56;;;5.93;100.00
49194;BME280;35029;50.804;12.866;2023-04-30T03:47:42;98257.38;;;5.85;100.00
49194;BME280;35029;50.804;12.866;2023-04-30T03:50:09;98272.13;;;5.78;100.00
49194;BME280;35029;50.804;12.866;2023-04-30T03:52:35;98263.94;;;5.81;100.00
49194;BME280;35029;50.804;12.866;2023-04-30T03:55:05;98252.44;;;5.64;100.00
49194;BME280;35029;50.804;12.866;2023-04-30T03:57:31;98271.75;;;5.72;100.00
49194;BME280;35029;50.804;12.866;2023-04-30T03:59:57;98252.06;;;5.58;100.00
49194;BME280;35029;50.804;12.866;2023-04-30T04:02:24;98278.59;;;5.65;100.00
49194;BME280;35029;50.804;12.866;2023-04-30T04:04:50;98256.06;;;5.45;100.00
49194;BME280;35029;50.804;12.866;2023-04-30T04:07:16;98266.06;;;5.59;100.00
49194;BME280;35029;50.804;12.866;2023-04-30T04:09:42;98258.63;;;5.54;100.00
49194;BME280;35029;50.804;12.866;2023-04-30T04:12:07;98268.97;;;5.56;100.00
49194;BME280;35029;50.804;12.866;2023-04-30T04:14:33;98283.28;;;5.71;100.00
49194;BME280;35029;50.804;12.866;2023-04-30T04:17:00;98273.88;;;5.69;100.00
49194;BME280;35029;50.804;12.866;2023-04-30T04:19:26;98279.22;;;5.77;100.00
49194;BME280;35029;50.804;12.866;2023-04-30T04:21:52;98295.28;;;5.92;100.00
49194;BME280;35029;50.804;12.866;2023-04-30T04:24:18;98297.59;;;5.95;100.00
49194;BME280;35029;50.804;12.866;2023-04-30T04:26:44;98286.69;;;5.90;100.00
49194;BME280;35029;50.804;12.866;2023-04-30T04:29:10;98298.16;;;5.99;100.00
49194;BME280;35029;50.804;12.866;2023-04-30T04:31:37;98302.97;;;6.03;100.00
49194;BME280;35029;50.804;12.866;2023-04-30T04:34:06;98307.09;;;6.06;100.00
49194;BME280;35029;50.804;12.866;2023-04-30T04:36:31;98289.28;;;6.00;100.00
49194;BME280;35029;50.804;12.866;2023-04-30T04:38:59;98309.53;;;6.25;100.00
49194;BME280;35029;50.804;12.866;2023-04-30T04:41:29;98289.59;;;6.23;100.00
49194;BME280;35029;50.804;12.866;2023-04-30T04:43:55;98315.53;;;6.36;100.00
49194;BME280;35029;50.804;12.866;2023-04-30T04:46:21;98313.13;;;6.42;100.00
49194;BME280;35029;50.804;12.866;2023-04-30T04:48:49;98321.06;;;6.51;100.00
49194;BME280;35029;50.804;12.866;2023-04-30T04:51:15;98300.28;;;6.39;100.00
49194;BME280;35029;50.804;12.866;2023-04-30T04:53:41;98314.50;;;6.55;100.00
49194;BME280;35029;50.804;12.866;2023-04-30T04:56:06;98318.66;;;6.57;100.00
49194;BME280;35029;50.804;12.866;2023-04-30T04:58:33;98322.81;;;6.68;100.00
49194;BME280;35029;50.804;12.866;2023-04-30T05:00:59;98314.41;;;6.65;100.00
49194;BME280;35029;50.804;12.866;2023-04-30T05:03:25;98315.22;;;6.65;100.00
49194;BME280;35029;50.804;12.866;2023-04-30T05:05:53;98327.28;;;6.76;100.00
49194;BME280;35029;50.804;12.866;2023-04-30T05:08:18;98329.13;;;6.75;100.00
49194;BME280;35029;50.804;12.866;2023-04-30T05:10:44;98333.09;;;6.80;100.00
49194;BME280;35029;50.804;12.866;2023-04-30T05:13:10;98328.03;;;6.86;100.00
49194;BME280;35029;50.804;12.866;2023-04-30T05:15:36;98338.94;;;6.91;99.63
49194;BME280;35029;50.804;12.866;2023-04-30T05:18:02;98288.38;;;6.62;99.77
49194;BME280;35029;50.804;12.866;2023-04-30T05:20:27;98320.19;;;6.68;100.00
49194;BME280;35029;50.804;12.866;2023-04-30T05:22:52;98348.94;;;6.88;100.00
49194;BME280;35029;50.804;12.866;2023-04-30T05:25:18;98340.84;;;6.81;100.00
49194;BME280;35029;50.804;12.866;2023-04-30T05:27:43;98349.59;;;6.82;100.00
49194;BME280;35029;50.804;12.866;2023-04-30T05:30:09;98310.06;;;6.55;100.00
49194;BME280;35029;50.804;12.866;2023-04-30T05:32:35;98325.91;;;6.64;100.00
49194;BME280;35029;50.804;12.866;2023-04-30T05:35:01;98346.94;;;6.82;100.00
49194;BME280;35029;50.804;12.866;2023-04-30T05:37:26;98351.75;;;6.86;100.00
49194;BME280;35029;50.804;12.866;2023-04-30T05:39:52;98354.41;;;6.94;100.00
49194;BME280;35029;50.804;12.866;2023-04-30T05:42:20;98359.84;;;6.93;99.91
49194;BME280;35029;50.804;12.866;2023-04-30T05:44:47;98358.97;;;6.84;100.00
49194;BME280;35029;50.804;12.866;2023-04-30T05:47:14;98359.81;;;6.85;100.00
49194;BME280;35029;50.804;12.866;2023-04-30T05:49:39;98366.75;;;6.86;100.00
49194;BME280;35029;50.804;12.866;2023-04-30T05:52:05;98354.28;;;6.70;98.93
49194;BME280;35029;50.804;12.866;2023-04-30T05:54:30;98359.44;;;6.80;98.89
49194;BME280;35029;50.804;12.866;2023-04-30T05:56:56;98363.63;;;6.64;99.25
49194;BME280;35029;50.804;12.866;2023-04-30T05:59:21;98353.16;;;6.72;99.46
49194;BME280;35029;50.804;12.866;2023-04-30T06:01:47;98320.59;;;6.55;99.22
49194;BME280;35029;50.804;12.866;2023-04-30T06:04:13;98360.75;;;6.75;98.61
49194;BME280;35029;50.804;12.866;2023-04-30T06:06:38;98359.66;;;6.86;100.00
49194;BME280;35029;50.804;12.866;2023-04-30T06:09:04;98351.22;;;6.83;100.00
49194;BME280;35029;50.804;12.866;2023-04-30T06:11:30;98346.94;;;6.82;100.00
49194;BME280;35029;50.804;12.866;2023-04-30T06:13:55;98348.16;;;6.96;100.00
49194;BME280;35029;50.804;12.866;2023-04-30T06:16:21;98364.31;;;7.01;98.24
49194;BME280;35029;50.804;12.866;2023-04-30T06:18:47;98361.19;;;6.97;98.47
49194;BME280;35029;50.804;12.866;2023-04-30T06:21:13;98363.50;;;7.00;100.00
49194;BME280;35029;50.804;12.866;2023-04-30T06:23:38;98351.78;;;6.94;99.67
49194;BME280;35029;50.804;12.866;2023-04-30T06:26:04;98373.22;;;7.00;99.74
49194;BME280;35029;50.804;12.866;2023-04-30T06:28:29;98358.75;;;7.04;99.20
49194;BME280;35029;50.804;12.866;2023-04-30T06:30:55;98359.13;;;7.09;98.58
49194;BME280;35029;50.804;12.866;2023-04-30T06:33:21;98352.06;;;7.18;98.81
49194;BME280;35029;50.804;12.866;2023-04-30T06:35:46;98346.72;;;7.01;97.86
49194;BME280;35029;50.804;12.866;2023-04-30T06:38:13;98368.34;;;7.13;97.43
49194;BME280;35029;50.804;12.866;2023-04-30T06:40:38;98369.69;;;7.17;97.61
49194;BME280;35029;50.804;12.866;2023-04-30T06:43:04;98371.31;;;7.18;97.03
49194;BME280;35029;50.804;12.866;2023-04-30T06:45:30;98373.75;;;7.11;98.67
49194;BME280;35029;50.804;12.866;2023-04-30T06:47:55;98376.28;;;7.13;97.36
49194;BME280;35029;50.804;12.866;2023-04-30T06:50:21;98357.78;;;7.05;98.33
49194;BME280;35029;50.804;12.866;2023-04-30T06:52:47;98360.13;;;7.16;98.90
49194;BME280;35029;50.804;12.866;2023-04-30T06:55:13;98364.59;;;7.24;97.54
49194;BME280;35029;50.804;12.866;2023-04-30T06:57:38;98371.72;;;7.32;98.39
49194;BME280;35029;50.804;12.866;2023-04-30T07:00:05;98371.06;;;7.30;97.68
49194;BME280;35029;50.804;12.866;2023-04-30T07:02:30;98326.44;;;7.02;96.92
49194;BME280;35029;50.804;12.866;2023-04-30T07:04:56;98379.00;;;7.38;96.70
49194;BME280;35029;50.804;12.866;2023-04-30T07:07:22;98373.72;;;7.38;97.18
49194;BME280;35029;50.804;12.866;2023-04-30T07:09:47;98361.53;;;7.37;96.94
49194;BME280;35029;50.804;12.866;2023-04-30T07:12:13;98372.25;;;7.43;97.12
49194;BME280;35029;50.804;12.866;2023-04-30T07:14:38;98372.75;;;7.47;96.44
49194;BME280;35029;50.804;12.866;2023-04-30T07:17:04;98370.25;;;7.37;94.70
49194;BME280;35029;50.804;12.866;2023-04-30T07:19:30;98373.56;;;7.39;96.03
49194;BME280;35029;50.804;12.866;2023-04-30T07:21:57;98374.06;;;7.43;95.78
49194;BME280;35029;50.804;12.866;2023-04-30T07:24:23;98365.28;;;7.26;96.32
49194;BME280;35029;50.804;12.866;2023-04-30T07:26:49;98373.75;;;7.46;97.52
49194;BME280;35029;50.804;12.866;2023-04-30T07:29:14;98371.97;;;7.55;95.60
49194;BME280;35029;50.804;12.866;2023-04-30T07:31:40;98357.63;;;7.57;94.97
49194;BME280;35029;50.804;12.866;2023-04-30T07:34:05;98356.28;;;7.53;96.01
49194;BME280;35029;50.804;12.866;2023-04-30T07:36:31;98354.97;;;7.57;95.83
49194;BME280;35029;50.804;12.866;2023-04-30T07:38:56;98369.84;;;7.67;96.77
49194;BME280;35029;50.804;12.866;2023-04-30T07:41:23;98378.13;;;7.72;96.28
49194;BME280;35029;50.804;12.866;2023-04-30T07:43:49;98371.16;;;7.54;95.44
49194;BME280;35029;50.804;12.866;2023-04-30T07:46:15;98385.53;;;7.68;96.46
49194;BME280;35029;50.804;12.866;2023-04-30T07:48:41;98377.47;;;7.86;97.22
49194;BME280;35029;50.804;12.866;2023-04-30T07:51:07;98379.97;;;7.96;95.16
49194;BME280;35029;50.804;12.866;2023-04-30T07:53:32;98370.25;;;8.05;94.39
49194;BME280;35029;50.804;12.866;2023-04-30T07:55:58;98389.25;;;8.33;92.45
49194;BME280;35029;50.804;12.866;2023-04-30T07:58:24;98372.25;;;8.44;90.95
49194;BME280;35029;50.804;12.866;2023-04-30T08:00:50;98375.38;;;8.64;90.74
49194;BME280;35029;50.804;12.866;2023-04-30T08:03:15;98382.75;;;9.02;88.99
49194;BME280;35029;50.804;12.866;2023-04-30T08:05:41;98376.16;;;8.98;86.21
49194;BME280;35029;50.804;12.866;2023-04-30T08:08:06;98394.16;;;8.94;86.90
49194;BME280;35029;50.804;12.866;2023-04-30T08:10:32;98375.19;;;8.66;86.50
49194;BME280;35029;50.804;12.866;2023-04-30T08:12:58;98391.75;;;8.68;88.33
49194;BME280;35029;50.804;12.866;2023-04-30T08:15:24;98401.97;;;8.54;87.96
49194;BME280;35029;50.804;12.866;2023-04-30T08:17:50;98392.81;;;9.06;87.78
49194;BME280;35029;50.804;12.866;2023-04-30T08:20:16;98397.28;;;9.06;86.94
49194;BME280;35029;50.804;12.866;2023-04-30T08:22:43;98391.31;;;9.60;85.47
49194;BME280;35029;50.804;12.866;2023-04-30T08:25:11;98383.69;;;9.57;82.97
49194;BME280;35029;50.804;12.866;2023-04-30T08:27:38;98387.13;;;9.34;84.74
49194;BME280;35029;50.804;12.866;2023-04-30T08:30:05;98380.91;;;9.02;83.03
49194;BME280;35029;50.804;12.866;2023-04-30T08:32:35;98393.97;;;9.04;82.76
49194;BME280;35029;50.804;12.866;2023-04-30T08:35:05;98390.63;;;9.18;82.60
49194;BME280;35029;50.804;12.866;2023-04-30T08:37:31;98391.94;;;9.62;78.54
49194;BME280;35029;50.804;12.866;2023-04-30T08:39:57;98379.00;;;9.98;78.46
49194;BME280;35029;50.804;12.866;2023-04-30T08:42:35;98400.31;;;10.28;75.19
49194;BME280;35029;50.804;12.866;2023-04-30T08:45:02;98396.13;;;10.57;76.73
49194;BME280;35029;50.804;12.866;2023-04-30T08:47:29;98400.44;;;10.12;74.48
49194;BME280;35029;50.804;12.866;2023-04-30T08:49:55;98402.00;;;9.98;75.36
49194;BME280;35029;50.804;12.866;2023-04-30T08:52:21;98402.16;;;9.65;75.60
49194;BME280;35029;50.804;12.866;2023-04-30T08:54:47;98406.91;;;9.78;73.56
49194;BME280;35029;50.804;12.866;2023-04-30T08:57:14;98404.53;;;9.91;74.50
49194;BME280;35029;50.804;12.866;2023-04-30T08:59:40;98396.97;;;10.35;73.21
49194;BME280;35029;50.804;12.866;2023-04-30T09:02:06;98412.19;;;10.09;72.67
49194;BME280;35029;50.804;12.866;2023-04-30T09:04:32;98386.69;;;9.85;75.07
49194;BME280;35029;50.804;12.866;2023-04-30T09:06:57;98389.22;;;10.02;77.78
49194;BME280;35029;50.804;12.866;2023-04-30T09:09:29;98392.06;;;10.00;76.84
49194;BME280;35029;50.804;12.866;2023-04-30T09:14:40;98397.78;;;10.12;76.67
49194;BME280;35029;50.804;12.866;2023-04-30T09:17:07;98395.94;;;10.59;75.56
49194;BME280;35029;50.804;12.866;2023-04-30T09:19:36;98403.06;;;10.96;74.82
49194;BME280;35029;50.804;12.866;2023-04-30T09:22:21;98404.69;;;10.97;74.26
49194;BME280;35029;50.804;12.866;2023-04-30T09:24:48;98403.00;;;10.67;72.42
49194;BME280;35029;50.804;12.866;2023-04-30T09:27:20;98400.91;;;10.77;74.29
49194;BME280;35029;50.804;12.866;2023-04-30T09:29:46;98401.41;;;11.40;71.47
49194;BME280;35029;50.804;12.866;2023-04-30T09:32:12;98402.75;;;10.76;73.42
49194;BME280;35029;50.804;12.866;2023-04-30T09:34:38;98382.56;;;10.52;72.86
49194;BME280;35029;50.804;12.866;2023-04-30T09:37:04;98397.59;;;10.13;75.73
49194;BME280;35029;50.804;12.866;2023-04-30T09:39:31;98401.53;;;10.18;76.43
49194;BME280;35029;50.804;12.866;2023-04-30T09:42:09;98394.41;;;10.64;71.82
49194;BME280;35029;50.804;12.866;2023-04-30T09:44:38;98399.13;;;10.92;72.88
49194;BME280;35029;50.804;12.866;2023-04-30T09:47:04;98407.31;;;10.68;69.67
49194;BME280;35029;50.804;12.866;2023-04-30T09:49:36;98410.44;;;10.25;68.42
49194;BME280;35029;50.804;12.866;2023-04-30T09:52:02;98395.41;;;10.63;69.69
49194;BME280;35029;50.804;12.866;2023-04-30T09:54:30;98390.81;;;10.57;65.09
49194;BME280;35029;50.804;12.866;2023-04-30T09:57:00;98400.91;;;10.77;67.12
49194;BME280;35029;50.804;12.866;2023-04-30T10:01:57;98389.25;;;11.82;65.28
49194;BME280;35029;50.804;12.866;2023-04-30T10:04:25;98388.81;;;11.64;64.22
49194;BME280;35029;50.804;12.866;2023-04-30T10:06:53;98378.38;;;11.77;64.21
49194;BME280;35029;50.804;12.866;2023-04-30T10:09:19;98375.16;;;11.30;67.78
49194;BME280;35029;50.804;12.866;2023-04-30T10:11:46;98362.34;;;11.04;66.88
49194;BME280;35029;50.804;12.866;2023-04-30T10:14:14;98385.38;;;10.74;68.44
49194;BME280;35029;50.804;12.866;2023-04-30T10:17:10;98354.91;;;10.70;69.33
49194;BME280;35029;50.804;12.866;2023-04-30T10:19:38;98376.13;;;11.59;68.23
49194;BME280;35029;50.804;12.866;2023-04-30T10:22:08;98378.63;;;11.97;61.48
49194;BME280;35029;50.804;12.866;2023-04-30T10:24:33;98384.13;;;11.81;56.93
49194;BME280;35029;50.804;12.866;2023-04-30T10:26:59;98367.22;;;11.89;54.06
49194;BME280;35029;50.804;12.866;2023-04-30T10:29:25;98366.16;;;11.83;56.12
49194;BME280;35029;50.804;12.866;2023-04-30T10:31:51;98356.22;;;12.07;58.52
49194;BME280;35029;50.804;12.866;2023-04-30T10:37:39;98347.84;;;12.31;59.38
49194;BME280;35029;50.804;12.866;2023-04-30T10:40:08;98336.75;;;12.78;58.30
49194;BME280;35029;50.804;12.866;2023-04-30T10:42:35;98345.09;;;13.10;58.42
49194;BME280;35029;50.804;12.866;2023-04-30T10:45:02;98316.69;;;13.24;59.34
49194;BME280;35029;50.804;12.866;2023-04-30T10:47:28;98326.53;;;13.65;60.18
49194;BME280;35029;50.804;12.866;2023-04-30T10:50:02;98338.63;;;13.67;55.14
49194;BME280;35029;50.804;12.866;2023-04-30T10:52:28;98319.00;;;13.27;53.91
49194;BME280;35029;50.804;12.866;2023-04-30T10:54:54;98322.72;;;12.97;53.91
49194;BME280;35029;50.804;12.866;2023-04-30T10:57:20;98327.00;;;13.33;54.52
49194;BME280;35029;50.804;12.866;2023-04-30T11:02:15;98294.97;;;13.13;54.72
49194;BME280;35029;50.804;12.866;2023-04-30T11:07:33;98319.16;;;13.74;54.63
49194;BME280;35029;50.804;12.866;2023-04-30T11:10:00;98327.78;;;13.69;52.70
49194;BME280;35029;50.804;12.866;2023-04-30T11:12:27;98323.47;;;13.75;55.32
49194;BME280;35029;50.804;12.866;2023-04-30T11:15:14;98317.56;;;13.99;50.97
49194;BME280;35029;50.804;12.866;2023-04-30T11:17:45;98307.09;;;13.91;49.92
49194;BME280;35029;50.804;12.866;2023-04-30T11:20:13;98310.94;;;13.68;50.54
49194;BME280;35029;50.804;12.866;2023-04-30T11:22:39;98320.41;;;13.78;49.51
49194;BME280;35029;50.804;12.866;2023-04-30T11:25:08;98308.13;;;13.97;50.75
49194;BME280;35029;50.804;12.866;2023-04-30T11:27:36;98291.94;;;14.18;52.69
49194;BME280;35029;50.804;12.866;2023-04-30T11:30:09;98294.38;;;14.67;50.97
49194;BME280;35029;50.804;12.866;2023-04-30T11:32:36;98300.34;;;14.69;50.46
49194;BME280;35029;50.804;12.866;2023-04-30T11:35:04;98301.06;;;15.10;51.94
49194;BME280;35029;50.804;12.866;2023-04-30T11:37:32;98298.47;;;15.42;50.07
49194;BME280;35029;50.804;12.866;2023-04-30T11:40:01;98302.00;;;14.43;44.98
49194;BME280;35029;50.804;12.866;2023-04-30T11:42:28;98294.41;;;14.40;47.72
49194;BME280;35029;50.804;12.866;2023-04-30T11:45:06;98282.09;;;14.73;48.90
49194;BME280;35029;50.804;12.866;2023-04-30T11:47:46;98290.25;;;14.78;47.89
49194;BME280;35029;50.804;12.866;2023-04-30T11:50:15;98286.59;;;14.72;47.72
49194;BME280;35029;50.804;12.866;2023-04-30T11:52:41;98289.81;;;14.94;50.32
49194;BME280;35029;50.804;12.866;2023-04-30T11:55:18;98280.56;;;14.90;45.74
49194;BME280;35029;50.804;12.866;2023-04-30T11:57:46;98288.09;;;15.13;49.41
49194;BME280;35029;50.804;12.866;2023-04-30T12:00:16;98271.03;;;15.21;48.05
49194;BME280;35029;50.804;12.866;2023-04-30T12:02:46;98281.19;;;15.44;46.15
49194;BME280;35029;50.804;12.866;2023-04-30T12:05:25;98280.88;;;15.27;46.09
49194;BME280;35029;50.804;12.866;2023-04-30T12:08:03;98278.66;;;15.17;45.41
49194;BME280;35029;50.804;12.866;2023-04-30T12:10:31;98283.91;;;15.37;45.48
49194;BME280;35029;50.804;12.866;2023-04-30T12:12:57;98283.13;;;15.62;45.93
49194;BME280;35029;50.804;12.866;2023-04-30T12:15:24;98268.44;;;15.46;46.12
49194;BME280;35029;50.804;12.866;2023-04-30T12:17:55;98291.50;;;15.41;46.87
49194;BME280;35029;50.804;12.866;2023-04-30T12:20:23;98288.94;;;15.14;45.86
49194;BME280;35029;50.804;12.866;2023-04-30T12:22:49;98291.00;;;15.57;46.10
49194;BME280;35029;50.804;12.866;2023-04-30T12:25:20;98282.66;;;15.40;45.59
49194;BME280;35029;50.804;12.866;2023-04-30T12:27:49;98275.00;;;15.89;44.53
49194;BME280;35029;50.804;12.866;2023-04-30T12:30:19;98263.28;;;15.90;43.97
49194;BME280;35029;50.804;12.866;2023-04-30T12:32:50;98228.19;;;15.73;44.69
49194;BME280;35029;50.804;12.866;2023-04-30T12:35:18;98264.19;;;16.02;44.04
49194;BME280;35029;50.804;12.866;2023-04-30T12:37:48;98269.19;;;15.92;42.06
49194;BME280;35029;50.804;12.866;2023-04-30T12:40:36;98268.44;;;15.85;41.95
49194;BME280;35029;50.804;12.866;2023-04-30T12:43:06;98262.88;;;16.37;44.20
49194;BME280;35029;50.804;12.866;2023-04-30T12:48:17;98249.88;;;16.59;41.50
49194;BME280;35029;50.804;12.866;2023-04-30T12:51:01;98244.47;;;16.47;43.15
49194;BME280;35029;50.804;12.866;2023-04-30T12:53:29;98244.97;;;16.37;39.42
49194;BME280;35029;50.804;12.866;2023-04-30T12:56:08;98244.94;;;16.19;43.07
49194;BME280;35029;50.804;12.866;2023-04-30T12:58:34;98242.66;;;16.41;42.42
49194;BME280;35029;50.804;12.866;2023-04-30T13:00:59;98240.97;;;16.47;40.44
49194;BME280;35029;50.804;12.866;2023-04-30T13:03:26;98236.66;;;16.46;40.62
49194;BME280;35029;50.804;12.866;2023-04-30T13:05:51;98232.34;;;16.01;40.14
49194;BME280;35029;50.804;12.866;2023-04-30T13:08:18;98237.88;;;16.50;41.98
49194;BME280;35029;50.804;12.866;2023-04-30T13:10:47;98231.13;;;16.22;39.26
49194;BME280;35029;50.804;12.866;2023-04-30T13:13:16;98238.06;;;16.48;41.32
49194;BME280;35029;50.804;12.866;2023-04-30T13:15:42;98223.22;;;16.52;41.09
49194;BME280;35029;50.804;12.866;2023-04-30T13:18:08;98226.44;;;16.17;40.05
49194;BME280;35029;50.804;12.866;2023-04-30T13:20:35;98224.38;;;16.38;40.21
49194;BME280;35029;50.804;12.866;2023-04-30T13:23:02;98220.09;;;16.55;40.06
49194;BME280;35029;50.804;12.866;2023-04-30T13:25:29;98223.00;;;16.54;39.28